Time;durP1;ratioP1;P1;durP2;ratioP2;P2;SDS_P1;SDS_P2;PMS_P1;PMS_P2;Temp;Humidity;BMP_temperature;BMP_pressure;BME280_temperature;BME280_humidity;BME280_pressure;Samples;Min_cycle;Max_cycle;Signal;HPM_P1;HPM_P2
2021/12/26 00:02:31;;;;;;;31.00;11.00;;;;;;;-6.66;70.30;100001.33;126406;1311;108932;-78
2021/12/26 00:05:36;;;;;;;32.20;11.10;;;;;;;-6.68;70.04;99999.99;126454;1315;108991;-77
2021/12/26 00:08:45;;;;;;;32.60;12.30;;;;;;;-6.70;70.00;100001.27;126491;1312;108929;-77
2021/12/26 00:11:51;;;;;;;28.00;11.80;;;;;;;-6.73;70.17;100003.94;126357;1311;109002;-78
2021/12/26 00:14:57;;;;;;;28.70;10.70;;;;;;;-6.76;70.05;100006.30;126196;1311;108742;-79
2021/12/26 00:18:02;;;;;;;25.90;10.70;;;;;;;-6.75;69.99;100003.52;126361;1315;108806;-79
2021/12/26 00:21:07;;;;;;;25.10;9.00;;;;;;;-6.73;69.97;100007.77;126721;1315;108968;-81
2021/12/26 00:24:13;;;;;;;26.50;9.00;;;;;;;-6.69;69.98;100009.55;126694;1311;108864;-78
2021/12/26 00:27:19;;;;;;;23.90;9.60;;;;;;;-6.64;69.72;100012.66;126630;1312;108701;-79
2021/12/26 00:30:25;;;;;;;33.90;10.40;;;;;;;-6.60;69.29;100005.25;126376;1311;108740;-78
2021/12/26 00:33:31;;;;;;;30.50;10.00;;;;;;;-6.55;69.29;100009.08;126362;1312;108816;-81
2021/12/26 00:36:37;;;;;;;28.00;10.10;;;;;;;-6.54;69.47;100012.34;126633;1311;108942;-81
2021/12/26 00:39:43;;;;;;;28.10;10.30;;;;;;;-6.55;69.62;100016.70;126574;1312;109249;-78
2021/12/26 00:42:52;;;;;;;28.90;10.90;;;;;;;-6.62;68.97;100015.52;126490;1315;108788;-78
2021/12/26 00:45:58;;;;;;;26.20;10.20;;;;;;;-6.69;68.78;100018.21;126503;1315;108915;-78
2021/12/26 00:49:04;;;;;;;28.10;10.80;;;;;;;-6.80;69.06;100015.44;126539;1312;109099;-78
2021/12/26 00:52:11;;;;;;;31.80;12.20;;;;;;;-6.87;69.07;100016.69;126745;1312;108949;-78
2021/12/26 00:55:17;;;;;;;33.10;11.00;;;;;;;-6.94;68.75;100015.16;126515;1312;109042;-79
2021/12/26 00:58:23;;;;;;;29.90;11.00;;;;;;;-7.07;69.00;100014.73;126548;1312;109115;-77
2021/12/26 01:01:29;;;;;;;31.40;11.80;;;;;;;-7.15;68.93;100016.85;126711;1311;108764;-79
2021/12/26 01:04:35;;;;;;;34.00;11.70;;;;;;;-7.23;69.04;100016.59;126322;1317;107853;-78
2021/12/26 01:07:52;;;;;;;30.80;11.00;;;;;;;-7.31;68.88;100015.64;126220;1312;109185;-79
2021/12/26 01:11:03;;;;;;;30.30;10.70;;;;;;;-7.41;69.12;100008.15;126558;1311;108807;-78
2021/12/26 01:14:16;;;;;;;25.60;9.60;;;;;;;-7.54;68.76;100002.64;126450;1312;108801;-78
2021/12/26 01:17:28;;;;;;;24.10;9.00;;;;;;;-7.59;68.81;100005.05;126818;1312;108000;-79
2021/12/26 01:20:48;;;;;;;22.70;8.10;;;;;;;-7.62;68.60;99999.64;126635;1310;108739;-80
2021/12/26 01:23:58;;;;;;;23.60;8.50;;;;;;;-7.62;68.74;100000.14;126499;1312;109022;-80
2021/12/26 01:27:06;;;;;;;19.10;8.10;;;;;;;-7.58;68.68;100000.54;126541;1311;108742;-80
2021/12/26 01:30:15;;;;;;;20.70;8.00;;;;;;;-7.50;68.40;100002.02;126540;1312;108992;-80
2021/12/26 01:33:25;;;;;;;23.30;8.60;;;;;;;-7.44;68.28;100003.08;126461;1311;108780;-80
2021/12/26 01:36:56;;;;;;;28.60;9.10;;;;;;;-7.41;68.13;100005.40;126691;1311;108945;-78
2021/12/26 01:40:21;;;;;;;23.00;8.80;;;;;;;-7.42;68.01;100010.44;126574;1311;108605;-78
2021/12/26 01:43:46;;;;;;;23.10;8.10;;;;;;;-7.39;68.02;100010.67;126371;1312;108754;-78
2021/12/26 01:47:02;;;;;;;23.30;9.60;;;;;;;-7.43;68.04;100012.35;126553;1312;108742;-78
2021/12/26 01:50:12;;;;;;;25.50;9.30;;;;;;;-7.47;67.93;100006.95;126347;1312;109230;-80
2021/12/26 01:53:22;;;;;;;24.80;9.80;;;;;;;-7.54;67.91;100006.63;126547;1312;109013;-79
2021/12/26 01:56:28;;;;;;;24.20;9.80;;;;;;;-7.60;67.94;100005.44;126327;1312;107906;-78
2021/12/26 01:59:34;;;;;;;28.00;9.80;;;;;;;-7.69;67.82;100006.72;126398;1311;108985;-78
2021/12/26 02:02:52;;;;;;;24.60;10.00;;;;;;;-7.76;68.04;100011.25;126632;1317;107922;-80
2021/12/26 02:05:58;;;;;;;26.30;10.30;;;;;;;-7.83;67.75;100013.67;126784;1311;108909;-79
2021/12/26 02:09:07;;;;;;;25.90;9.40;;;;;;;-7.92;67.79;100020.33;126542;1315;109209;-79
2021/12/26 02:12:13;;;;;;;23.10;8.20;;;;;;;-8.01;67.67;100021.25;126496;1317;106898;-80
2021/12/26 02:15:19;;;;;;;20.70;7.90;;;;;;;-8.11;67.79;100024.47;126281;1315;108776;-78
2021/12/26 02:18:54;;;;;;;21.60;7.40;;;;;;;-8.17;67.69;100021.70;126293;1310;156770;-78
2021/12/26 02:22:06;;;;;;;23.10;8.60;;;;;;;-8.18;67.57;100023.11;126512;1312;108877;-78
2021/12/26 02:25:23;;;;;;;36.00;13.70;;;;;;;-8.14;67.95;100023.33;126369;1316;107887;-80
2021/12/26 02:28:30;;;;;;;30.50;10.90;;;;;;;-8.04;67.61;100024.13;126605;1316;107842;-79
2021/12/26 02:31:36;;;;;;;29.80;11.20;;;;;;;-8.01;67.49;100024.37;126627;1312;108938;-79
2021/12/26 02:34:41;;;;;;;25.40;9.80;;;;;;;-7.94;67.44;100026.60;126335;1317;108957;-78
2021/12/26 02:37:47;;;;;;;27.40;9.30;;;;;;;-7.89;67.11;100029.38;126257;1318;109044;-78
2021/12/26 02:40:58;;;;;;;25.20;10.30;;;;;;;-7.86;67.19;100036.57;126334;1312;108874;-78
2021/12/26 02:44:04;;;;;;;28.50;9.50;;;;;;;-7.86;67.19;100037.42;126320;1312;108947;-78
2021/12/26 02:47:12;;;;;;;25.50;10.00;;;;;;;-7.86;66.98;100036.73;126274;1318;108907;-78
2021/12/26 02:50:19;;;;;;;30.20;11.80;;;;;;;-7.93;66.83;100031.90;126306;1311;108803;-77
2021/12/26 02:53:26;;;;;;;29.00;11.50;;;;;;;-7.98;66.94;100029.98;126336;1312;108827;-78
2021/12/26 02:56:34;;;;;;;28.90;11.80;;;;;;;-8.11;67.15;100026.36;126668;1311;107357;-78
2021/12/26 02:59:39;;;;;;;29.60;11.50;;;;;;;-8.17;67.16;100032.05;126505;1316;107775;-78
2021/12/26 03:02:47;;;;;;;28.90;10.40;;;;;;;-8.26;66.79;100031.58;126411;1311;108760;-78
2021/12/26 03:06:01;;;;;;;23.50;8.60;;;;;;;-8.36;66.71;100032.18;126701;1312;108751;-81
2021/12/26 03:09:07;;;;;;;26.10;9.50;;;;;;;-8.44;66.85;100032.61;126406;1317;108975;-78
2021/12/26 03:12:14;;;;;;;24.10;9.50;;;;;;;-8.56;66.78;100033.23;126280;1312;108836;-78
2021/12/26 03:15:20;;;;;;;26.20;8.90;;;;;;;-8.60;66.48;100034.71;126236;1314;108803;-78
2021/12/26 03:18:26;;;;;;;27.40;8.80;;;;;;;-8.60;66.66;100041.45;126526;1312;108149;-78
2021/12/26 03:21:33;;;;;;;24.00;8.40;;;;;;;-8.59;66.38;100045.23;126521;1318;109039;-78
2021/12/26 03:24:39;;;;;;;22.60;7.90;;;;;;;-8.59;66.43;100048.50;126320;1315;108441;-77
2021/12/26 03:27:46;;;;;;;26.10;9.20;;;;;;;-8.55;66.40;100046.67;126586;1312;108740;-78
2021/12/26 03:30:52;;;;;;;28.90;9.90;;;;;;;-8.53;66.36;100043.86;126449;1317;105562;-78
2021/12/26 03:33:58;;;;;;;27.80;10.50;;;;;;;-8.45;66.71;100041.08;126499;1317;108937;-78
2021/12/26 03:37:05;;;;;;;28.40;10.70;;;;;;;-8.42;66.57;100035.83;126537;1318;108831;-78
2021/12/26 03:40:13;;;;;;;27.10;10.70;;;;;;;-8.48;66.07;100040.64;126352;1318;108627;-78
2021/12/26 03:43:19;;;;;;;28.60;10.90;;;;;;;-8.55;66.51;100044.09;126515;1317;108756;-78
2021/12/26 03:46:24;;;;;;;33.10;11.10;;;;;;;-8.61;66.29;100038.89;126649;1317;109033;-77
2021/12/26 03:49:30;;;;;;;39.20;13.80;;;;;;;-8.65;66.28;100041.23;126691;1315;108799;-78
2021/12/26 03:52:36;;;;;;;41.80;13.10;;;;;;;-8.66;66.31;100047.13;126408;1312;108983;-78
2021/12/26 03:55:42;;;;;;;38.80;13.10;;;;;;;-8.69;66.53;100052.17;126353;1314;108917;-77
2021/12/26 03:58:48;;;;;;;47.40;15.80;;;;;;;-8.72;66.59;100051.56;126278;1318;108811;-79
2021/12/26 04:01:54;;;;;;;45.30;14.60;;;;;;;-8.77;66.17;100056.00;126441;1312;109531;-77
2021/12/26 04:05:00;;;;;;;43.60;13.90;;;;;;;-8.79;66.25;100059.14;126246;1318;108678;-79
2021/12/26 04:08:06;;;;;;;60.80;19.40;;;;;;;-8.75;66.49;100058.88;126463;1318;107299;-77
2021/12/26 04:11:11;;;;;;;50.20;17.40;;;;;;;-8.72;66.62;100057.95;126417;1318;107736;-77
2021/12/26 04:14:18;;;;;;;87.70;29.40;;;;;;;-8.72;66.29;100055.52;126279;1315;107455;-77
2021/12/26 04:17:24;;;;;;;38.10;14.10;;;;;;;-8.70;65.95;100061.00;126259;1316;107454;-77
2021/12/26 04:20:37;;;;;;;60.90;22.30;;;;;;;-8.71;66.03;100059.83;126284;1317;108706;-77
2021/12/26 04:23:43;;;;;;;51.10;17.70;;;;;;;-8.75;65.72;100060.95;126541;1317;108970;-78
2021/12/26 04:26:51;;;;;;;41.40;14.50;;;;;;;-8.77;65.79;100060.49;126628;1317;109033;-79
2021/12/26 04:29:57;;;;;;;37.80;13.10;;;;;;;-8.76;65.57;100060.98;126514;1318;107515;-78
2021/12/26 04:33:04;;;;;;;38.00;13.20;;;;;;;-8.79;65.55;100060.35;126310;1318;108781;-78
2021/12/26 04:36:10;;;;;;;37.70;13.80;;;;;;;-8.83;65.58;100058.72;126322;1317;108177;-77
2021/12/26 04:39:15;;;;;;;41.60;14.50;;;;;;;-8.84;65.43;100053.77;126382;1317;108901;-77
2021/12/26 04:42:22;;;;;;;42.90;15.60;;;;;;;-8.92;65.37;100053.77;126352;1317;107327;-79
2021/12/26 04:45:46;;;;;;;44.10;16.40;;;;;;;-9.03;65.39;100055.38;126296;1311;108693;-78
2021/12/26 04:49:10;;;;;;;47.70;15.60;;;;;;;-9.10;65.43;100053.65;126458;1317;108986;-77
2021/12/26 04:52:16;;;;;;;103.20;30.80;;;;;;;-9.15;65.50;100055.33;126390;1311;107838;-82
2021/12/26 04:55:24;;;;;;;57.70;19.50;;;;;;;-9.19;65.49;100060.23;126308;1315;108728;-78
2021/12/26 04:58:30;;;;;;;89.70;32.30;;;;;;;-9.25;65.31;100063.28;126530;1312;107970;-78
2021/12/26 05:01:36;;;;;;;59.80;21.70;;;;;;;-9.28;65.40;100067.48;126276;1312;108825;-77
2021/12/26 05:04:43;;;;;;;54.10;18.70;;;;;;;-9.26;65.53;100073.81;126365;1316;108795;-78
2021/12/26 05:07:49;;;;;;;43.70;16.90;;;;;;;-9.23;65.15;100081.84;126250;1317;108060;-78
2021/12/26 05:10:56;;;;;;;43.90;15.90;;;;;;;-9.12;65.37;100090.58;126366;1317;108814;-78
2021/12/26 05:14:03;;;;;;;44.30;15.40;;;;;;;-9.01;65.37;100094.98;126551;1317;108865;-79
2021/12/26 05:17:09;;;;;;;47.60;16.10;;;;;;;-8.93;65.35;100090.84;126280;1317;108788;-79
2021/12/26 05:20:14;;;;;;;36.80;13.10;;;;;;;-8.86;65.51;100091.54;126266;1318;107606;-80
2021/12/26 05:23:22;;;;;;;40.80;14.20;;;;;;;-8.79;65.69;100090.34;126313;1315;108749;-78
2021/12/26 05:26:29;;;;;;;38.00;13.50;;;;;;;-8.76;65.85;100090.80;126572;1315;108813;-77
2021/12/26 05:29:37;;;;;;;46.30;15.10;;;;;;;-8.77;65.51;100091.52;126571;1315;107921;-77
2021/12/26 05:32:44;;;;;;;41.90;15.80;;;;;;;-8.78;66.00;100092.39;126396;1317;108713;-78
2021/12/26 05:35:51;;;;;;;47.30;16.30;;;;;;;-8.78;66.05;100089.13;126303;1318;109051;-78
2021/12/26 05:38:57;;;;;;;39.90;14.00;;;;;;;-8.82;65.59;100091.79;126487;1317;109002;-80
2021/12/26 05:42:03;;;;;;;44.70;15.70;;;;;;;-8.86;65.64;100087.42;126562;1316;107870;-80
2021/12/26 05:45:12;;;;;;;45.00;16.00;;;;;;;-8.89;65.57;100090.41;126669;1318;107856;-77
2021/12/26 05:48:30;;;;;;;39.20;14.50;;;;;;;-8.97;65.60;100095.41;126693;1317;108379;-77
2021/12/26 05:51:37;;;;;;;37.40;12.60;;;;;;;-9.05;65.31;100097.48;126444;1316;108927;-76
2021/12/26 05:54:45;;;;;;;33.10;11.40;;;;;;;-9.10;65.33;100104.48;126486;1312;107415;-77
2021/12/26 05:57:50;;;;;;;32.30;11.60;;;;;;;-9.12;65.34;100104.35;126652;1317;108817;-79
2021/12/26 06:00:57;;;;;;;32.90;12.40;;;;;;;-9.10;65.59;100095.87;126630;1317;108887;-80
2021/12/26 06:04:02;;;;;;;35.90;11.40;;;;;;;-9.05;65.27;100089.73;126530;1317;108758;-78
2021/12/26 06:07:09;;;;;;;32.60;11.40;;;;;;;-8.99;65.46;100085.29;126666;1316;108744;-80
2021/12/26 06:10:14;;;;;;;31.80;11.70;;;;;;;-8.92;65.32;100085.48;126521;1317;109050;-78
2021/12/26 06:13:20;;;;;;;34.70;12.80;;;;;;;-8.83;65.57;100090.80;126386;1318;108992;-80
2021/12/26 06:16:25;;;;;;;41.00;14.10;;;;;;;-8.74;65.44;100093.33;126411;1317;108809;-78
2021/12/26 06:19:31;;;;;;;36.40;13.90;;;;;;;-8.72;65.23;100096.05;126334;1317;108943;-79
2021/12/26 06:22:56;;;;;;;35.50;12.60;;;;;;;-8.81;64.79;100099.52;126520;1317;109164;-77
2021/12/26 06:26:21;;;;;;;37.30;12.80;;;;;;;-8.85;65.00;100102.39;126332;1318;107697;-79
2021/12/26 06:29:27;;;;;;;38.20;12.90;;;;;;;-8.94;64.59;100108.11;126474;1315;106999;-78
2021/12/26 06:32:58;;;;;;;36.50;12.70;;;;;;;-9.04;64.51;100110.05;126449;1318;108785;-78
2021/12/26 06:36:30;;;;;;;33.40;13.60;;;;;;;-9.18;64.71;100107.58;126231;1316;108987;-78
2021/12/26 06:39:54;;;;;;;39.70;13.10;;;;;;;-9.29;64.85;100112.13;126445;1317;109195;-78
2021/12/26 06:43:20;;;;;;;38.00;11.30;;;;;;;-9.37;64.61;100115.89;126005;1313;108401;-78
2021/12/26 06:46:49;;;;;;;32.70;10.60;;;;;;;-9.41;64.89;100122.70;126386;1317;109082;-80
2021/12/26 06:50:12;;;;;;;29.60;10.00;;;;;;;-9.47;64.47;100124.70;126402;1317;107889;-78
2021/12/26 06:53:18;;;;;;;34.80;11.10;;;;;;;-9.49;64.68;100126.64;127174;1312;107226;-79
2021/12/26 06:56:24;;;;;;;31.50;11.00;;;;;;;-9.47;64.76;100128.33;126755;1317;107947;-79
2021/12/26 06:59:30;;;;;;;35.70;10.90;;;;;;;-9.42;64.38;100129.60;127474;1310;108784;-77
2021/12/26 07:02:35;;;;;;;29.10;10.90;;;;;;;-9.33;64.54;100131.83;126437;1318;108994;-78
2021/12/26 07:05:41;;;;;;;29.70;11.40;;;;;;;-9.21;64.36;100134.00;126381;1314;108836;-78
2021/12/26 07:08:50;;;;;;;38.90;13.90;;;;;;;-9.12;64.53;100142.59;126466;1311;108793;-80
2021/12/26 07:11:55;;;;;;;35.10;12.90;;;;;;;-9.09;64.35;100147.35;126368;1317;108835;-77
2021/12/26 07:15:24;;;;;;;31.90;11.80;;;;;;;-9.07;64.24;100146.98;126596;1311;108087;-78
2021/12/26 07:18:34;;;;;;;39.60;12.70;;;;;;;-9.06;64.09;100153.17;126411;1311;108906;-78
2021/12/26 07:21:41;;;;;;;35.00;13.10;;;;;;;-9.06;64.46;100158.67;126409;1311;109024;-77
2021/12/26 07:24:50;;;;;;;47.30;15.70;;;;;;;-9.03;64.31;100165.34;126445;1315;108920;-78
2021/12/26 07:27:56;;;;;;;75.50;21.80;;;;;;;-8.96;64.56;100172.08;126463;1314;108682;-74
2021/12/26 07:31:17;;;;;;;96.10;26.10;;;;;;;-8.96;64.46;100171.58;126481;1311;108818;-77
2021/12/26 07:34:24;;;;;;;50.10;17.90;;;;;;;-9.04;64.39;100168.98;126428;1311;108872;-78
2021/12/26 07:37:32;;;;;;;36.10;14.00;;;;;;;-9.16;64.01;100174.05;126593;1310;107944;-79
2021/12/26 07:40:38;;;;;;;38.90;14.40;;;;;;;-9.19;64.27;100178.74;126438;1314;108891;-77
2021/12/26 07:43:49;;;;;;;34.40;12.50;;;;;;;-9.09;64.33;100183.55;126449;1315;109037;-80
2021/12/26 07:46:57;;;;;;;34.70;11.80;;;;;;;-8.89;64.72;100180.55;126410;1316;106534;-78
2021/12/26 07:50:03;;;;;;;35.00;12.80;;;;;;;-8.65;64.84;100176.59;126462;1315;107860;-80
2021/12/26 07:53:27;;;;;;;30.50;12.10;;;;;;;-8.38;64.86;100178.88;126384;1315;108935;-80
2021/12/26 07:56:52;;;;;;;42.40;15.80;;;;;;;-8.14;64.93;100180.05;126337;1315;107898;-81
2021/12/26 08:00:19;;;;;;;43.00;15.90;;;;;;;-7.89;64.81;100197.21;126332;1310;107742;-79
2021/12/26 08:03:35;;;;;;;43.70;16.40;;;;;;;-7.75;64.93;100195.48;126736;1311;109282;-78
2021/12/26 08:07:02;;;;;;;49.40;18.20;;;;;;;-7.56;65.29;100191.02;126432;1311;107940;-79
2021/12/26 08:10:09;;;;;;;53.80;20.00;;;;;;;-7.47;65.31;100193.02;126373;1311;108716;-74
2021/12/26 08:13:15;;;;;;;53.40;19.40;;;;;;;-7.40;65.44;100189.73;126408;1312;108684;-78
2021/12/26 08:16:20;;;;;;;51.90;19.80;;;;;;;-7.38;65.44;100186.04;126378;1316;108771;-81
2021/12/26 08:19:26;;;;;;;49.10;19.40;;;;;;;-7.33;65.67;100190.23;126461;1316;106874;-78
2021/12/26 08:22:31;;;;;;;966.80;284.10;;;;;;;-7.21;66.23;100192.66;126444;1312;108944;-79
2021/12/26 08:25:37;;;;;;;429.00;124.60;;;;;;;-7.01;66.33;100194.71;126414;1315;108568;-78
2021/12/26 08:28:43;;;;;;;87.90;32.00;;;;;;;-6.80;66.56;100191.50;126566;1311;108849;-78
2021/12/26 08:31:48;;;;;;;121.70;40.90;;;;;;;-6.59;66.55;100191.55;126487;1312;108821;-79
2021/12/26 08:34:54;;;;;;;66.30;26.20;;;;;;;-6.40;66.74;100187.69;126534;1310;108867;-78
2021/12/26 08:37:59;;;;;;;68.70;30.50;;;;;;;-6.21;67.42;100188.86;126471;1311;108910;-78
2021/12/26 08:41:05;;;;;;;82.20;33.00;;;;;;;-6.08;67.04;100189.30;126487;1318;107432;-81
2021/12/26 08:44:16;;;;;;;61.10;25.30;;;;;;;-5.98;67.33;100193.45;126514;1310;107335;-79
2021/12/26 08:47:22;;;;;;;52.70;21.20;;;;;;;-5.87;67.53;100197.39;126487;1318;106898;-79
2021/12/26 08:50:28;;;;;;;50.80;22.20;;;;;;;-5.77;67.34;100198.63;126462;1312;107932;-80
2021/12/26 08:53:33;;;;;;;52.90;22.50;;;;;;;-5.65;67.25;100204.48;126524;1312;108938;-79
2021/12/26 08:56:39;;;;;;;88.20;34.90;;;;;;;-5.53;67.41;100209.45;126550;1310;108928;-79
2021/12/26 08:59:45;;;;;;;423.60;177.50;;;;;;;-5.45;67.34;100215.06;126442;1315;108972;-79
2021/12/26 09:02:51;;;;;;;446.80;156.90;;;;;;;-5.30;67.90;100215.58;126417;1312;108236;-79
2021/12/26 09:05:57;;;;;;;173.30;58.00;;;;;;;-5.15;67.88;100216.61;126469;1312;108892;-78
2021/12/26 09:09:03;;;;;;;93.20;37.00;;;;;;;-5.03;68.03;100215.51;126496;1316;106965;-79
2021/12/26 09:12:11;;;;;;;86.40;38.50;;;;;;;-4.90;67.87;100214.65;126461;1310;108814;-79
2021/12/26 09:15:17;;;;;;;62.40;30.40;;;;;;;-4.77;68.18;100214.90;126413;1312;107758;-82
2021/12/26 09:18:23;;;;;;;86.40;31.40;;;;;;;-4.67;67.91;100218.51;126428;1311;108866;-79
2021/12/26 09:21:28;;;;;;;52.80;22.40;;;;;;;-4.57;67.99;100213.11;126394;1310;109000;-80
2021/12/26 09:24:34;;;;;;;44.60;19.70;;;;;;;-4.44;67.92;100214.70;126333;1311;107676;-80
2021/12/26 09:27:39;;;;;;;42.30;20.10;;;;;;;-4.32;68.25;100215.96;126313;1312;108968;-80
2021/12/26 09:30:45;;;;;;;41.80;18.70;;;;;;;-4.23;67.99;100219.80;126381;1311;108747;-79
2021/12/26 09:33:51;;;;;;;41.40;19.10;;;;;;;-4.11;68.11;100219.34;126199;1313;108993;-78
2021/12/26 09:36:56;;;;;;;45.80;20.90;;;;;;;-3.97;68.42;100214.23;126389;1312;107668;-79
2021/12/26 09:40:03;;;;;;;43.30;19.30;;;;;;;-3.82;68.32;100210.52;126286;1315;109004;-79
2021/12/26 09:43:08;;;;;;;43.30;20.20;;;;;;;-3.69;68.25;100210.65;126382;1312;108934;-79
2021/12/26 09:46:14;;;;;;;56.00;26.40;;;;;;;-3.56;68.31;100216.73;126354;1314;108083;-79
2021/12/26 09:49:21;;;;;;;36.90;17.00;;;;;;;-3.48;68.10;100212.95;126374;1314;108783;-80
2021/12/26 09:52:27;;;;;;;31.90;14.60;;;;;;;-3.38;68.23;100212.30;126354;1312;108774;-80
2021/12/26 09:55:33;;;;;;;30.60;14.80;;;;;;;-3.31;68.27;100208.55;126322;1312;109007;-80
2021/12/26 09:58:53;;;;;;;32.80;15.70;;;;;;;-3.24;68.28;100203.89;126388;1310;108564;-80
2021/12/26 10:02:07;;;;;;;42.00;19.70;;;;;;;-3.13;68.34;100200.30;126587;1315;108869;-80
2021/12/26 10:05:12;;;;;;;47.70;21.30;;;;;;;-3.04;68.28;100206.66;126479;1310;109738;-80
2021/12/26 10:08:18;;;;;;;36.20;15.80;;;;;;;-2.94;68.27;100206.57;126473;1310;109059;-79
2021/12/26 10:11:26;;;;;;;28.60;13.00;;;;;;;-2.84;68.35;100209.27;126328;1311;107667;-80
2021/12/26 10:14:34;;;;;;;31.40;13.90;;;;;;;-2.75;68.25;100207.84;126312;1318;108789;-80
2021/12/26 10:17:39;;;;;;;48.20;24.70;;;;;;;-2.70;68.40;100205.33;126151;1311;229601;-80
2021/12/26 10:20:45;;;;;;;107.60;52.00;;;;;;;-2.66;68.56;100204.78;126400;1310;107775;-81
2021/12/26 10:23:50;;;;;;;62.70;31.60;;;;;;;-2.60;68.53;100205.20;126324;1310;108934;-80
2021/12/26 10:26:57;;;;;;;30.10;14.90;;;;;;;-2.55;68.60;100207.77;126372;1317;107960;-79
2021/12/26 10:30:06;;;;;;;24.60;12.40;;;;;;;-2.53;68.71;100206.12;126347;1312;108558;-78
2021/12/26 10:33:12;;;;;;;18.90;9.60;;;;;;;-2.52;68.63;100203.48;126388;1315;107661;-80
2021/12/26 10:36:17;;;;;;;29.50;13.50;;;;;;;-2.54;68.84;100202.35;126394;1311;106802;-79
2021/12/26 10:39:29;;;;;;;22.50;10.20;;;;;;;-2.56;68.82;100198.73;126427;1315;109084;-79
2021/12/26 10:42:37;;;;;;;29.30;12.80;;;;;;;-2.62;68.90;100194.84;126452;1311;107752;-83
2021/12/26 10:45:42;;;;;;;19.60;8.30;;;;;;;-2.72;68.61;100192.02;126403;1312;108922;-79
2021/12/26 10:48:47;;;;;;;17.10;8.80;;;;;;;-2.86;68.86;100198.90;126308;1311;108810;-80
2021/12/26 10:51:53;;;;;;;168.30;74.30;;;;;;;-2.99;68.81;100196.87;126330;1312;108695;-79
2021/12/26 10:55:02;;;;;;;59.40;24.10;;;;;;;-3.10;68.94;100199.29;126351;1310;108780;-79
2021/12/26 10:58:10;;;;;;;24.50;9.70;;;;;;;-3.19;68.90;100192.88;126351;1311;107712;-81
2021/12/26 11:01:15;;;;;;;49.20;23.30;;;;;;;-3.23;69.13;100193.59;126333;1311;109796;-79
2021/12/26 11:04:21;;;;;;;36.50;15.80;;;;;;;-3.29;69.17;100188.45;126349;1310;107837;-82
2021/12/26 11:07:27;;;;;;;43.90;20.10;;;;;;;-3.30;69.12;100189.05;126372;1311;108763;-80
2021/12/26 11:10:38;;;;;;;60.70;30.20;;;;;;;-3.30;69.17;100188.88;126354;1310;108868;-79
2021/12/26 11:13:44;;;;;;;48.20;21.00;;;;;;;-3.33;69.18;100192.44;126357;1310;106237;-80
2021/12/26 11:16:50;;;;;;;32.00;13.40;;;;;;;-3.34;69.12;100192.52;126408;1311;107817;-80
2021/12/26 11:19:55;;;;;;;30.30;14.00;;;;;;;-3.33;68.80;100191.78;126349;1312;108730;-80
2021/12/26 11:23:09;;;;;;;33.40;15.50;;;;;;;-3.25;68.76;100185.33;126267;1315;108993;-80
2021/12/26 11:26:16;;;;;;;44.10;21.00;;;;;;;-3.11;68.67;100186.95;126504;1315;106763;-79
2021/12/26 11:29:22;;;;;;;37.60;19.20;;;;;;;-3.07;68.35;100190.45;126457;1312;108954;-80
2021/12/26 11:32:29;;;;;;;81.60;37.20;;;;;;;-3.10;68.23;100189.02;126353;1310;106815;-80
2021/12/26 11:35:35;;;;;;;66.50;30.20;;;;;;;-3.11;68.11;100182.79;126337;1314;109037;-80
2021/12/26 11:38:41;;;;;;;60.70;27.00;;;;;;;-3.11;68.23;100184.02;126328;1311;108835;-79
2021/12/26 11:42:32;;;;;;;82.70;37.30;;;;;;;-3.11;68.10;100184.68;126326;1311;109003;-79
2021/12/26 11:46:10;;;;;;;80.30;35.30;;;;;;;-3.10;68.19;100184.16;126261;1311;109367;-80
2021/12/26 11:50:07;;;;;;;77.40;33.20;;;;;;;-3.10;68.01;100184.14;126366;1312;108937;-78
2021/12/26 11:54:09;;;;;;;101.30;42.70;;;;;;;-3.14;68.18;100182.40;126297;1315;107702;-79
2021/12/26 11:58:09;;;;;;;74.20;32.00;;;;;;;-3.20;68.15;100175.16;126351;1311;108860;-80
2021/12/26 12:01:18;;;;;;;64.10;29.30;;;;;;;-3.20;68.08;100177.44;126359;1312;107833;-80
2021/12/26 12:04:26;;;;;;;79.70;37.20;;;;;;;-3.23;68.35;100176.67;126287;1310;108771;-80
2021/12/26 12:07:45;;;;;;;96.60;44.80;;;;;;;-3.21;68.40;100178.02;126349;1312;108915;-80
2021/12/26 12:10:59;;;;;;;70.50;31.60;;;;;;;-3.19;68.31;100181.90;126361;1311;108964;-79
2021/12/26 12:14:04;;;;;;;53.50;24.10;;;;;;;-3.17;68.29;100180.80;126383;1312;108940;-80
2021/12/26 12:17:18;;;;;;;64.60;32.10;;;;;;;-3.14;68.48;100181.03;126457;1312;108973;-80
2021/12/26 12:20:25;;;;;;;40.60;20.40;;;;;;;-3.12;68.55;100178.34;126348;1311;108948;-80
2021/12/26 12:23:31;;;;;;;29.70;14.10;;;;;;;-3.11;68.65;100175.86;126369;1313;107358;-80
2021/12/26 12:26:42;;;;;;;23.20;11.10;;;;;;;-3.08;68.65;100171.52;126319;1312;108606;-79
2021/12/26 12:29:50;;;;;;;22.10;10.40;;;;;;;-3.04;68.58;100173.80;126336;1312;108740;-78
2021/12/26 12:33:17;;;;;;;26.50;12.30;;;;;;;-3.02;68.67;100171.27;126367;1312;107764;-78
2021/12/26 12:36:30;;;;;;;28.30;11.40;;;;;;;-3.08;68.46;100172.05;126358;1313;108779;-77
2021/12/26 12:39:35;;;;;;;221.50;80.40;;;;;;;-3.18;68.54;100171.09;126445;1312;108865;-77
2021/12/26 12:42:43;;;;;;;41.70;16.50;;;;;;;-3.20;68.99;100171.54;126243;1311;107326;-78
2021/12/26 12:46:14;;;;;;;26.60;10.90;;;;;;;-3.23;68.77;100166.46;126350;1311;108897;-77
2021/12/26 12:49:21;;;;;;;25.70;9.50;;;;;;;-3.28;68.88;100165.61;125967;1319;108416;-77
2021/12/26 12:52:45;;;;;;;18.40;8.60;;;;;;;-3.29;69.06;100164.45;126311;1311;108780;-77
2021/12/26 12:55:51;;;;;;;18.10;8.90;;;;;;;-3.24;68.84;100165.28;126446;1312;109074;-77
2021/12/26 12:59:35;;;;;;;19.10;8.00;;;;;;;-3.15;68.99;100165.56;126283;1312;108899;-77
2021/12/26 13:02:41;;;;;;;49.90;15.80;;;;;;;-3.00;68.92;100164.22;126322;1315;107932;-77
2021/12/26 13:05:48;;;;;;;31.00;12.00;;;;;;;-2.94;68.53;100164.80;126442;1314;109008;-78
2021/12/26 13:08:54;;;;;;;39.30;16.80;;;;;;;-2.90;68.68;100163.60;126644;1310;108735;-78
2021/12/26 13:12:01;;;;;;;42.80;19.20;;;;;;;-2.90;68.38;100164.46;126646;1312;108664;-79
2021/12/26 13:15:09;;;;;;;45.20;20.80;;;;;;;-2.94;68.34;100168.81;126635;1312;108974;-78
2021/12/26 13:18:14;;;;;;;48.00;20.70;;;;;;;-2.96;68.26;100169.27;126630;1312;108742;-77
2021/12/26 13:21:19;;;;;;;46.20;22.10;;;;;;;-3.01;68.02;100164.60;126597;1312;109033;-77
2021/12/26 13:24:32;;;;;;;50.60;22.10;;;;;;;-3.07;68.14;100166.80;126582;1312;108518;-79
2021/12/26 13:27:38;;;;;;;49.70;23.00;;;;;;;-3.15;68.11;100171.98;126460;1310;108830;-77
2021/12/26 13:30:44;;;;;;;61.70;29.10;;;;;;;-3.20;68.07;100174.51;126406;1312;108726;-77
2021/12/26 13:33:55;;;;;;;59.00;25.50;;;;;;;-3.27;68.00;100183.34;126535;1309;108739;-77
2021/12/26 13:37:05;;;;;;;60.60;25.70;;;;;;;-3.39;67.65;100188.89;126308;1312;108766;-77
2021/12/26 13:40:13;;;;;;;55.90;24.30;;;;;;;-3.52;67.67;100184.55;126529;1311;108810;-79
2021/12/26 13:43:27;;;;;;;54.10;24.30;;;;;;;-3.61;67.85;100180.96;126390;1311;106761;-77
2021/12/26 13:46:36;;;;;;;85.70;34.30;;;;;;;-3.72;67.67;100186.30;126543;1310;108942;-78
2021/12/26 13:49:41;;;;;;;61.60;24.90;;;;;;;-3.83;68.07;100187.62;126327;1312;107712;-76
2021/12/26 13:52:58;;;;;;;51.00;22.70;;;;;;;-3.89;68.03;100194.99;126397;1312;108951;-77
2021/12/26 13:56:04;;;;;;;49.80;21.90;;;;;;;-3.96;67.90;100194.90;126481;1312;107821;-78
2021/12/26 13:59:09;;;;;;;54.40;23.40;;;;;;;-4.11;67.58;100200.90;126582;1312;107875;-78
2021/12/26 14:02:17;;;;;;;54.30;23.90;;;;;;;-4.24;67.76;100199.33;126463;1312;108853;-78
2021/12/26 14:05:23;;;;;;;56.00;23.30;;;;;;;-4.33;67.77;100197.60;126353;1311;108621;-77